Aeroporto :
LOGIN :

Iscrizione | Disclaimer

   EN    FR    IT 

 










Sommario :    VFR   VFR Marginale   IFR   IFR Intensivo   IFR Molto Intensivo
Visibilità : 
Base nubi : 
>= 8 km
>= 3000ft
5 / 8 km
1000 / 3000 ft
1500m / 5 km
500 / 1000 ft
800 / 1500m
200 / 500 ft
< 800m
< 200 ft
Simboli :   Temporali  Nebbia  Neve Forte  Precipitazioni Forti  Vento > 20 kt
SIGMETs :   Varie  Temporali  Ghiacco  Turbolenza  Onda orograficha  Ceneri Vulcaniche






- Altitudine del aeroporto : 1487 ft
- Codice IATA : MUC


EDDM - München Franz Josef Strauss

ULTIMO METAR :
  • 241120Z 21007KT 170V240 9999 FEW020 BKN029 06/01 Q1022 BECMG 15005KT BKN008

METARs OBSOLETI :
  • 241050Z 22009KT 190V250 9999 FEW020 BKN032 06/01 Q1023 BECMG 15005KT BKN008
  • 241020Z 23008KT 200V260 9999 FEW015 BKN037 06/00 Q1023 BECMG 15005KT BKN008
  • 240950Z 24008KT 9999 FEW013 BKN037 05/02 Q1024 NOSIG
  • 240920Z 24009KT 9999 FEW011 BKN033 04/02 Q1024 NOSIG
  • 240850Z 23012KT 9999 FEW011 OVC036 04/02 Q1025 NOSIG

TAF TAF EDDM
Valido dal 24 a 12 ore il 25 a 18 ore UTC


241100Z 2412/2518 16005KT 9999 BKN040
TEMPO 2412/2414 BKN008
BECMG 2418/2420 25007KT
BECMG 2509/2511 25015G25KT



MetMap, La meteo Aeronautica in un colpo d'occhio ! - Copyright ORBIFLY Dicembre 2007 - Disclaimer

ORBIFLY MET'MAP TEAM :

Programmazione e sviluppo : Alexandra Zaïnal
Concezione : Baudouin d'Aumeries
Aiuto per la programmazione : Marc-Olivier Méhu
Supporto tecnico e logistico : Manuel Goepfert
Aiuto per la traduzione : Arnaldo La Scala

Contatto : metmap@orbifly.com




FONTI E CREDITI :

   NOAA